Time;durP1;ratioP1;P1;durP2;ratioP2;P2;SDS_P1;SDS_P2;PMS_P1;PMS_P2;Temp;Humidity;BMP_temperature;BMP_pressure;BME280_temperature;BME280_humidity;BME280_pressure;Samples;Min_cycle;Max_cycle;Signal;HPM_P1;HPM_P2
2022/05/26 00:01:34;;;;;;;5.33;4.40;;;8.90;99.90;8.10;100042;;;;597845;237;25172;-82
2022/05/26 00:04:02;;;;;;;5.37;4.87;;;8.90;99.90;8.10;100043;;;;608297;237;24046;-80
2022/05/26 00:06:31;;;;;;;4.97;4.47;;;8.90;99.90;8.10;100028;;;;607394;232;24097;-77
2022/05/26 00:09:03;;;;;;;5.63;5.03;;;8.90;99.90;8.10;100033;;;;594447;242;24017;-76
2022/05/26 00:11:30;;;;;;;6.57;4.90;;;8.90;99.90;8.20;100037;;;;598996;237;24034;-81
2022/05/26 00:14:03;;;;;;;6.83;5.30;;;8.90;99.90;8.10;100034;;;;606755;234;24038;-80
2022/05/26 00:16:30;;;;;;;4.90;4.50;;;8.90;99.90;8.20;100040;;;;606893;237;24195;-79
2022/05/26 00:18:58;;;;;;;6.77;4.27;;;8.90;99.90;8.20;100037;;;;606863;234;24053;-76
2022/05/26 00:21:28;;;;;;;4.70;4.20;;;9.00;99.90;8.20;100030;;;;607692;237;24063;-75
2022/05/26 00:23:59;;;;;;;5.03;4.63;;;9.00;99.90;8.30;100041;;;;607171;232;24028;-76
2022/05/26 00:26:28;;;;;;;5.23;4.73;;;9.00;99.90;8.30;100035;;;;593218;238;24125;-76
2022/05/26 00:28:56;;;;;;;5.43;4.93;;;9.10;99.90;8.30;100035;;;;595873;238;24080;-76
2022/05/26 00:31:22;;;;;;;8.00;4.83;;;9.10;99.90;8.40;100023;;;;595608;238;24045;-77
2022/05/26 00:33:50;;;;;;;4.63;4.23;;;9.10;99.90;8.40;100018;;;;606605;233;24105;-75
2022/05/26 00:36:37;;;;;;;5.90;5.30;;;9.10;99.90;8.40;100025;;;;595880;238;24024;-75
2022/05/26 00:38:51;;;;;;;5.30;4.80;;;9.10;99.90;8.40;100019;;;;583939;240;24037;-75
2022/05/26 00:41:18;;;;;;;5.53;4.70;;;9.20;99.90;8.40;100027;;;;594726;238;24077;-76
2022/05/26 00:43:46;;;;;;;4.87;4.30;;;9.10;99.90;8.40;100027;;;;605843;234;24039;-76
2022/05/26 00:46:20;;;;;;;6.23;5.50;;;9.20;99.90;8.40;100026;;;;605844;237;24055;-75
2022/05/26 00:48:52;;;;;;;4.27;3.87;;;9.20;99.90;8.50;100022;;;;592548;241;24055;-76
2022/05/26 00:51:22;;;;;;;8.43;4.77;;;9.20;99.90;8.50;100016;;;;605435;237;24027;-76
2022/05/26 00:53:51;;;;;;;5.07;4.50;;;9.30;99.90;8.50;100033;;;;605808;237;24029;-75
2022/05/26 00:56:32;;;;;;;6.90;5.27;;;9.20;99.90;8.60;100030;;;;605821;237;24058;-80
2022/05/26 00:58:58;;;;;;;4.53;4.10;;;9.30;99.90;8.60;100026;;;;594336;236;24124;-77
2022/05/26 01:01:27;;;;;;;7.60;5.23;;;9.40;99.90;8.60;100027;;;;595431;237;24128;-77
2022/05/26 01:03:57;;;;;;;6.90;5.03;;;9.40;99.90;8.70;100023;;;;596217;233;24099;-76
2022/05/26 01:06:49;;;;;;;7.70;5.20;;;9.40;99.90;8.70;100020;;;;582461;242;24072;-75
2022/05/26 01:09:20;;;;;;;5.83;4.77;;;9.50;99.90;8.70;100019;;;;595556;237;24085;-75
2022/05/26 01:11:45;;;;;;;7.77;5.97;;;9.50;99.90;8.70;100010;;;;606283;237;24069;-78
2022/05/26 01:14:25;;;;;;;7.87;5.13;;;9.50;99.90;8.70;100010;;;;607240;233;24021;-82
2022/05/26 01:17:15;;;;;;;5.13;4.63;;;9.50;99.90;8.70;100001;;;;607152;237;24057;-77
2022/05/26 01:20:25;;;;;;;6.67;5.37;;;9.50;99.90;8.80;100008;;;;582387;242;24101;-76
2022/05/26 01:23:39;;;;;;;5.97;5.37;;;9.50;99.90;8.70;100011;;;;596502;237;24051;-78
2022/05/26 01:27:03;;;;;;;6.20;5.60;;;9.50;99.90;8.70;100019;;;;594442;237;24118;-78
2022/05/26 01:29:39;;;;;;;5.50;5.00;;;9.50;99.90;8.70;100014;;;;607397;237;24056;-76
2022/05/26 01:32:28;;;;;;;4.87;4.37;;;9.50;99.90;8.70;100016;;;;594049;237;24090;-75
2022/05/26 01:35:20;;;;;;;5.17;4.77;;;9.40;99.90;8.70;100013;;;;606045;237;24056;-78
2022/05/26 01:38:36;;;;;;;5.67;4.60;;;9.40;99.90;8.60;100007;;;;606082;237;24074;-75
2022/05/26 01:41:13;;;;;;;6.57;4.67;;;9.40;99.90;8.60;100011;;;;557014;253;24130;-76
2022/05/26 01:43:53;;;;;;;5.17;4.53;;;9.40;99.90;8.60;100009;;;;585218;238;24091;-76
2022/05/26 01:46:29;;;;;;;5.63;4.93;;;9.40;99.90;8.60;100006;;;;606225;237;24076;-75
2022/05/26 01:49:04;;;;;;;4.73;4.33;;;9.40;99.90;8.60;100000;;;;605505;237;24086;-75
2022/05/26 01:51:37;;;;;;;5.20;4.80;;;9.40;99.90;8.60;100009;;;;592739;238;24047;-78
2022/05/26 01:54:27;;;;;;;5.10;4.70;;;9.40;99.90;8.60;100008;;;;594650;238;24040;-77
2022/05/26 01:56:57;;;;;;;5.03;4.43;;;9.40;99.90;8.60;99993;;;;605310;237;24125;-77
2022/05/26 01:59:43;;;;;;;4.80;4.30;;;9.40;99.90;8.60;99984;;;;595148;238;24041;-79
2022/05/26 02:02:11;;;;;;;4.83;4.37;;;9.30;99.90;8.60;99982;;;;582947;238;24110;-77
2022/05/26 02:04:39;;;;;;;4.53;4.00;;;9.40;99.90;8.60;99970;;;;605676;237;24094;-75
2022/05/26 02:07:37;;;;;;;5.67;4.43;;;9.40;99.90;8.60;99968;;;;594448;238;24057;-76
2022/05/26 02:10:07;;;;;;;5.63;4.60;;;9.40;99.90;8.50;99954;;;;593623;237;24034;-76
2022/05/26 02:12:35;;;;;;;6.87;4.70;;;9.30;99.90;8.50;99958;;;;594425;237;24083;-76
2022/05/26 02:15:16;;;;;;;6.00;4.47;;;9.30;99.90;8.60;99958;;;;593690;241;24109;-75
2022/05/26 02:17:47;;;;;;;9.37;4.83;;;9.30;99.90;8.60;99954;;;;607489;236;24091;-76
2022/05/26 02:20:16;;;;;;;6.63;5.03;;;9.30;99.90;8.60;99952;;;;593372;237;24064;-77
2022/05/26 02:23:05;;;;;;;5.03;4.53;;;9.40;99.90;8.60;99951;;;;606360;237;24085;-75
2022/05/26 02:25:33;;;;;;;5.23;4.73;;;9.40;99.90;8.60;99950;;;;595610;237;24086;-76
2022/05/26 02:28:04;;;;;;;5.03;4.57;;;9.40;99.90;8.70;99937;;;;595660;237;24067;-80
2022/05/26 02:30:32;;;;;;;5.20;4.70;;;9.40;99.90;8.70;99940;;;;594913;237;24104;-76
2022/05/26 02:33:04;;;;;;;4.77;4.37;;;9.50;99.90;8.80;99946;;;;605593;233;24057;-76
2022/05/26 02:35:32;;;;;;;4.67;4.30;;;9.70;99.90;8.90;99943;;;;605165;237;24050;-75
2022/05/26 02:38:04;;;;;;;5.20;4.70;;;9.70;99.90;9.00;99931;;;;593485;234;24073;-77
2022/05/26 02:40:31;;;;;;;4.77;4.37;;;9.80;99.90;9.10;99939;;;;593506;242;24069;-76
2022/05/26 02:43:10;;;;;;;4.50;4.10;;;9.90;99.90;9.20;99930;;;;606914;237;24036;-75
2022/05/26 02:45:55;;;;;;;6.70;4.33;;;10.00;99.90;9.30;99923;;;;596153;237;24048;-77
2022/05/26 02:48:54;;;;;;;3.87;3.57;;;10.10;99.90;9.40;99914;;;;583213;236;24060;-75
2022/05/26 02:51:43;;;;;;;4.93;3.40;;;10.20;99.90;9.50;99921;;;;595297;238;24038;-76
2022/05/26 02:54:54;;;;;;;4.50;4.10;;;10.30;99.90;9.60;99927;;;;595511;238;24121;-75
2022/05/26 02:57:39;;;;;;;5.70;3.30;;;10.40;99.90;9.70;99930;;;;596152;238;24127;-78
2022/05/26 03:00:18;;;;;;;3.90;3.60;;;10.50;99.90;9.80;99931;;;;596334;238;24047;-76
2022/05/26 03:03:13;;;;;;;3.50;3.30;;;10.60;99.90;9.80;99917;;;;581918;242;24120;-85
2022/05/26 03:05:53;;;;;;;3.07;2.77;;;10.60;99.90;9.90;99914;;;;596656;238;24042;-77
2022/05/26 03:08:22;;;;;;;2.80;2.60;;;10.70;99.90;10.00;99924;;;;592883;242;24199;-75
2022/05/26 03:10:53;;;;;;;5.67;2.97;;;10.80;99.90;10.00;99917;;;;596963;237;24088;-77
2022/05/26 03:13:24;;;;;;;3.20;2.93;;;10.80;99.90;10.10;99919;;;;596678;238;24108;-84
2022/05/26 03:15:54;;;;;;;2.83;2.70;;;10.80;99.90;10.10;99904;;;;594688;242;24047;-85
2022/05/26 03:18:20;;;;;;;4.53;3.07;;;10.90;99.90;10.10;99906;;;;606886;234;24027;-75
2022/05/26 03:20:48;;;;;;;2.80;2.60;;;10.90;99.90;10.20;99912;;;;606189;232;24039;-75
2022/05/26 03:23:19;;;;;;;3.07;2.87;;;10.90;99.90;10.20;99907;;;;607635;235;24075;-75
2022/05/26 03:25:47;;;;;;;3.20;2.90;;;11.00;99.90;10.20;99907;;;;607440;236;24047;-75
2022/05/26 03:28:15;;;;;;;2.70;2.50;;;11.00;99.90;10.20;99902;;;;606995;236;24058;-75
2022/05/26 03:30:44;;;;;;;2.60;2.40;;;11.00;99.90;10.30;99907;;;;596385;237;24033;-75
2022/05/26 03:33:13;;;;;;;2.93;2.73;;;11.10;99.90;10.30;99902;;;;593783;240;24065;-75
2022/05/26 03:40:57;;;;;;;3.33;2.37;;;11.20;99.90;10.40;99888;;;;572413;237;24050;-75
2022/05/26 03:43:28;;;;;;;5.70;3.03;;;11.20;99.90;10.50;99899;;;;605817;237;24087;-75
2022/05/26 03:45:56;;;;;;;2.90;2.70;;;11.30;99.90;10.60;99895;;;;595405;237;24053;-75
2022/05/26 03:48:24;;;;;;;5.97;2.73;;;11.40;99.90;10.70;99886;;;;595411;237;24106;-76
2022/05/26 03:50:52;;;;;;;2.83;2.63;;;11.50;99.90;10.90;99898;;;;605827;233;24057;-76
2022/05/26 03:53:21;;;;;;;3.07;2.77;;;11.60;99.90;11.00;99892;;;;606030;237;26276;-78
2022/05/26 03:55:50;;;;;;;3.00;2.80;;;11.80;99.90;11.20;99891;;;;606895;234;24076;-80
2022/05/26 03:58:19;;;;;;;2.77;2.57;;;12.00;99.90;11.30;99896;;;;595998;237;24171;-76
2022/05/26 04:00:48;;;;;;;3.83;2.70;;;12.00;99.90;11.40;99889;;;;594845;237;24030;-76
2022/05/26 04:03:17;;;;;;;3.30;3.10;;;12.20;99.90;11.50;99885;;;;605717;237;24084;-76
2022/05/26 04:05:46;;;;;;;2.97;2.67;;;12.20;99.90;11.60;99885;;;;606776;237;24070;-75
2022/05/26 04:08:16;;;;;;;3.30;3.10;;;12.30;99.90;11.60;99881;;;;606837;237;24039;-75
2022/05/26 04:10:45;;;;;;;3.77;3.47;;;12.40;99.90;11.60;99885;;;;596084;238;24053;-74
2022/05/26 04:13:13;;;;;;;3.97;2.93;;;12.40;99.90;11.70;99882;;;;594020;241;24058;-76
2022/05/26 04:15:45;;;;;;;5.03;2.50;;;12.40;99.90;11.70;99878;;;;596411;238;24073;-75
2022/05/26 04:18:09;;;;;;;2.70;2.50;;;12.50;99.90;11.70;99876;;;;606163;237;24079;-76
2022/05/26 04:20:37;;;;;;;6.63;3.10;;;12.50;99.90;11.80;99881;;;;606918;237;24025;-77
2022/05/26 04:23:06;;;;;;;3.07;2.83;;;12.50;99.90;11.80;99876;;;;607188;232;24030;-76
2022/05/26 04:25:34;;;;;;;3.23;3.03;;;12.60;99.90;11.90;99875;;;;596622;238;24118;-78
2022/05/26 04:28:05;;;;;;;3.13;2.93;;;12.60;99.90;11.90;99872;;;;607295;237;24058;-75
2022/05/26 04:30:33;;;;;;;3.10;2.90;;;12.70;99.90;11.90;99869;;;;591160;242;24065;-74
2022/05/26 04:33:01;;;;;;;3.00;2.80;;;12.60;99.90;12.00;99876;;;;597113;235;24057;-75
2022/05/26 04:35:30;;;;;;;2.97;2.77;;;12.70;99.90;12.00;99872;;;;609165;236;24029;-74
2022/05/26 04:37:58;;;;;;;3.30;3.00;;;12.80;99.90;12.10;99857;;;;608466;236;24064;-76
2022/05/26 04:40:26;;;;;;;2.73;2.57;;;12.90;99.90;12.30;99858;;;;597861;237;24105;-80
2022/05/26 04:42:54;;;;;;;2.90;2.73;;;13.00;99.90;12.40;99859;;;;607808;236;24043;-79
2022/05/26 04:45:22;;;;;;;2.73;2.60;;;13.10;99.90;12.50;99866;;;;597115;237;24051;-77
2022/05/26 04:47:50;;;;;;;2.97;2.77;;;13.20;99.90;12.60;99868;;;;608213;237;24048;-82
2022/05/26 04:50:18;;;;;;;3.03;2.20;;;13.30;99.90;12.80;99864;;;;607848;237;24013;-80
2022/05/26 04:52:46;;;;;;;4.47;2.73;;;13.50;99.90;12.90;99858;;;;607584;237;24035;-79
2022/05/26 04:55:15;;;;;;;3.03;2.60;;;13.60;99.90;13.00;99859;;;;607789;236;24059;-79
2022/05/26 04:57:45;;;;;;;3.27;2.43;;;13.70;99.90;13.10;99851;;;;597240;237;24103;-82
2022/05/26 05:00:13;;;;;;;3.97;2.57;;;13.80;99.90;13.10;99862;;;;607994;237;24040;-74
2022/05/26 05:02:41;;;;;;;2.10;1.90;;;13.80;99.90;13.70;99857;;;;597120;237;24056;-78
2022/05/26 05:05:09;;;;;;;2.37;2.17;;;14.20;99.90;15.20;99865;;;;597080;237;24021;-82
2022/05/26 05:07:37;;;;;;;1.80;1.70;;;15.70;99.90;15.70;99861;;;;607858;237;24047;-84
2022/05/26 05:10:08;;;;;;;3.00;2.30;;;16.30;99.90;15.80;99868;;;;596982;237;24028;-79
2022/05/26 05:12:36;;;;;;;2.30;2.10;;;16.60;99.90;15.80;99869;;;;596915;238;24003;-83
2022/05/26 05:15:05;;;;;;;2.37;2.03;;;16.60;99.90;15.70;99866;;;;607524;233;24020;-84
2022/05/26 05:17:34;;;;;;;2.03;1.93;;;16.50;99.90;15.90;99861;;;;583055;242;24059;-79
2022/05/26 05:20:01;;;;;;;2.20;2.10;;;16.60;99.90;16.10;99861;;;;607950;237;24021;-82
2022/05/26 05:22:40;;;;;;;3.20;2.20;;;16.80;99.90;16.20;99860;;;;607569;237;24035;-80
2022/05/26 05:25:27;;;;;;;2.27;2.17;;;16.90;99.90;16.40;99866;;;;603879;236;24084;-79
2022/05/26 05:28:09;;;;;;;4.93;2.20;;;17.10;99.90;16.70;99862;;;;607924;237;24029;-84
2022/05/26 05:30:43;;;;;;;2.90;2.60;;;17.40;99.90;16.90;99855;;;;594174;235;24019;-83
2022/05/26 05:33:19;;;;;;;3.03;2.70;;;17.60;99.90;17.00;99858;;;;597002;238;24125;-84
2022/05/26 05:35:47;;;;;;;2.00;1.90;;;17.70;99.90;17.10;99854;;;;607642;236;24056;-85
2022/05/26 05:38:19;;;;;;;7.27;2.20;;;17.70;99.90;17.00;99854;;;;595970;238;24059;-85
2022/05/26 05:40:46;;;;;;;2.47;2.30;;;17.70;99.90;16.90;99859;;;;595288;238;24059;-85
2022/05/26 05:43:14;;;;;;;2.40;2.27;;;17.60;99.90;16.80;99858;;;;595591;238;24147;-86
2022/05/26 05:45:39;;;;;;;2.33;2.17;;;17.50;99.90;16.80;99858;;;;596574;237;24096;-76
2022/05/26 05:48:08;;;;;;;2.80;2.60;;;17.50;99.90;17.00;99863;;;;596767;237;24037;-80
2022/05/26 05:50:36;;;;;;;2.97;2.50;;;17.60;99.90;17.10;99851;;;;596385;237;24030;-84
2022/05/26 05:53:05;;;;;;;5.07;2.53;;;17.70;99.90;17.30;99857;;;;607467;236;24049;-81
2022/05/26 05:55:35;;;;;;;2.70;2.40;;;18.10;99.90;17.50;99857;;;;596848;237;24076;-78
2022/05/26 05:58:07;;;;;;;2.53;2.43;;;18.30;99.90;17.60;99864;;;;596839;237;24082;-78
2022/05/26 06:00:32;;;;;;;2.30;2.20;;;18.20;99.90;17.70;99850;;;;596602;237;24040;-76
2022/05/26 06:03:01;;;;;;;2.17;2.07;;;18.40;99.90;17.90;99847;;;;596711;237;24048;-77
2022/05/26 06:05:29;;;;;;;3.53;2.80;;;18.50;99.90;18.00;99851;;;;596330;237;24022;-75
2022/05/26 06:07:58;;;;;;;2.85;2.45;;;18.60;99.90;18.00;99859;;;;591268;237;35019;-79
2022/05/26 06:10:27;;;;;;;3.85;2.60;;;18.70;99.90;18.10;99846;;;;590962;237;34893;-78
2022/05/26 06:12:55;;;;;;;2.50;2.30;;;18.70;99.90;18.70;99842;;;;596288;237;24092;-77
2022/05/26 06:15:23;;;;;;;2.37;2.20;;;19.10;99.90;20.00;99841;;;;606385;237;24080;-83
2022/05/26 06:17:51;;;;;;;3.23;2.47;;;20.40;99.90;20.90;99843;;;;606312;237;24026;-83
2022/05/26 06:20:20;;;;;;;4.60;2.20;;;21.30;99.90;21.70;99830;;;;606674;237;23067;-77
2022/05/26 06:22:51;;;;;;;4.87;2.67;;;22.10;99.90;23.40;99830;;;;606532;233;23053;-81
2022/05/26 06:25:15;;;;;;;2.20;2.10;;;23.60;99.90;24.60;99836;;;;596236;237;24041;-82
2022/05/26 06:30:33;;;;;;;3.47;2.50;;;25.40;93.70;25.20;99829;;;;595741;238;24028;-79
2022/05/26 06:38:35;;;;;;;2.17;1.97;;;28.00;79.30;27.00;99845;;;;607184;237;23041;-77
2022/05/26 06:43:46;;;;;;;2.57;2.07;;;27.50;75.40;26.50;99835;;;;595635;238;23076;-81
2022/05/26 06:46:17;;;;;;;3.03;2.13;;;27.30;74.70;26.20;99829;;;;605991;237;23079;-78
2022/05/26 06:48:46;;;;;;;2.63;1.97;;;27.10;73.80;25.20;99826;;;;606444;237;23084;-77
2022/05/26 06:51:14;;;;;;;3.27;1.80;;;25.40;74.40;24.50;99828;;;;595769;238;24107;-82
2022/05/26 06:53:42;;;;;;;1.90;1.80;;;25.40;74.40;24.20;99826;;;;606946;237;24084;-81
2022/05/26 06:56:10;;;;;;;2.20;1.47;;;25.00;76.50;24.20;99829;;;;606868;235;24046;-83
2022/05/26 06:58:38;;;;;;;2.40;2.30;;;24.80;78.30;24.90;99825;;;;597435;237;23015;-81
2022/05/26 07:01:06;;;;;;;1.73;1.60;;;25.30;76.10;25.50;99827;;;;607779;232;24041;-75
2022/05/26 07:03:34;;;;;;;2.20;2.00;;;25.90;73.50;25.90;99834;;;;603905;237;24010;-76
2022/05/26 07:06:02;;;;;;;3.20;1.50;;;26.30;72.50;26.80;99828;;;;606805;236;24019;-77
2022/05/26 07:08:31;;;;;;;1.97;1.50;;;27.10;70.20;28.10;99836;;;;606737;237;23024;-76
2022/05/26 07:11:00;;;;;;;2.97;1.70;;;28.30;67.80;28.40;99829;;;;606664;237;23081;-77
2022/05/26 07:13:27;;;;;;;1.73;1.63;;;28.50;61.90;27.60;99830;;;;606676;237;24096;-76
2022/05/26 07:15:55;;;;;;;3.83;1.83;;;28.50;61.90;26.50;99819;;;;606828;237;23084;-82
2022/05/26 07:18:24;;;;;;;2.58;1.80;;;27.60;62.70;25.30;99823;;;;602495;237;34911;-77
2022/05/26 07:20:52;;;;;;;2.63;1.80;;;26.50;65.40;25.00;99813;;;;607630;232;23047;-77
2022/05/26 07:23:22;;;;;;;3.83;1.97;;;25.80;68.20;26.10;99823;;;;595533;237;24051;-79
2022/05/26 07:25:51;;;;;;;1.73;1.63;;;28.00;65.70;28.10;99819;;;;596114;237;24075;-78
2022/05/26 07:28:18;;;;;;;1.73;1.63;;;28.00;65.60;30.60;99822;;;;606498;237;23046;-76
2022/05/26 07:30:46;;;;;;;1.60;1.50;;;30.40;60.60;32.80;99817;;;;596244;237;24104;-77
2022/05/26 07:33:14;;;;;;;1.70;1.60;;;32.60;56.50;34.80;99813;;;;606488;237;23058;-77
2022/05/26 07:35:42;;;;;;;2.08;1.87;;;34.80;53.10;35.40;99823;;;;606815;237;24090;-78
2022/05/26 07:41:17;;;;;;;4.10;1.87;;;35.30;47.90;33.40;99808;;;;596449;238;23032;-80
2022/05/26 07:43:54;;;;;;;3.20;2.20;;;34.60;48.30;33.10;99808;;;;596185;238;23119;-77
2022/05/26 07:46:17;;;;;;;2.85;1.83;;;34.10;48.80;32.90;99825;;;;585948;236;24070;-77
2022/05/26 07:48:45;;;;;;;1.85;1.70;;;33.70;49.30;33.60;99817;;;;595714;236;23164;-77
2022/05/26 07:51:13;;;;;;;1.83;1.73;;;34.10;48.30;33.50;99819;;;;606266;232;23113;-75
2022/05/26 07:53:41;;;;;;;4.30;1.80;;;34.10;47.90;33.10;99820;;;;607407;234;23061;-76
2022/05/26 07:56:12;;;;;;;1.58;1.48;;;33.80;48.20;33.70;99819;;;;607422;237;23063;-75
2022/05/26 07:58:40;;;;;;;1.73;1.62;;;34.10;48.60;35.10;99824;;;;596263;238;23062;-80
2022/05/26 08:01:08;;;;;;;3.25;1.60;;;35.10;48.00;35.90;99829;;;;596147;237;23142;-78
2022/05/26 08:03:37;;;;;;;2.75;1.73;;;35.60;45.90;34.50;99831;;;;595901;238;23108;-76
2022/05/26 08:06:05;;;;;;;2.65;1.42;;;35.50;45.80;32.60;99830;;;;595874;238;23060;-78
2022/05/26 08:08:33;;;;;;;3.12;1.80;;;34.00;47.20;30.40;99830;;;;606760;232;23048;-76
2022/05/26 08:11:03;;;;;;;1.35;1.17;;;32.10;48.90;28.60;99823;;;;597317;237;23051;-76
2022/05/26 08:13:30;;;;;;;2.97;1.60;;;30.20;51.40;27.00;99833;;;;604142;237;23099;-77
2022/05/26 08:16:00;;;;;;;4.67;1.50;;;28.50;54.20;25.50;99847;;;;596797;237;24055;-75
2022/05/26 08:18:29;;;;;;;2.87;1.30;;;25.50;64.40;24.50;99849;;;;586754;242;24112;-75
2022/05/26 08:20:57;;;;;;;3.63;1.20;;;24.50;67.90;23.60;99859;;;;606565;232;23077;-75
2022/05/26 08:23:26;;;;;;;1.20;1.10;;;24.50;67.90;22.70;99867;;;;602401;236;23086;-76
2022/05/26 08:25:55;;;;;;;1.30;1.30;;;22.80;72.50;22.00;99856;;;;606822;237;24037;-77
2022/05/26 08:28:26;;;;;;;1.60;1.50;;;22.50;75.60;22.00;99846;;;;602853;237;24061;-75
2022/05/26 08:30:55;;;;;;;3.20;1.30;;;23.20;75.30;23.00;99849;;;;602930;237;24027;-75
2022/05/26 08:33:26;;;;;;;1.23;1.07;;;23.20;75.30;24.30;99846;;;;595421;237;24034;-76
2022/05/26 08:35:51;;;;;;;2.27;1.33;;;24.40;72.90;25.10;99847;;;;605668;237;24156;-75
2022/05/26 08:38:19;;;;;;;2.23;1.20;;;25.30;70.60;26.00;99847;;;;595239;237;24087;-77
2022/05/26 08:40:52;;;;;;;2.07;1.47;;;26.20;69.20;26.80;99837;;;;606761;237;24150;-75
2022/05/26 08:43:20;;;;;;;1.30;1.20;;;27.10;65.60;27.30;99855;;;;606790;237;23043;-77
2022/05/26 08:45:50;;;;;;;1.20;1.10;;;29.50;62.90;29.50;99857;;;;585080;242;23078;-74
2022/05/26 08:48:52;;;;;;;1.00;1.00;;;32.20;56.90;32.20;99860;;;;595559;238;23064;-75
2022/05/26 08:51:32;;;;;;;2.50;1.40;;;32.10;56.80;33.60;99866;;;;585633;242;23059;-76
2022/05/26 08:53:59;;;;;;;3.50;1.20;;;34.10;51.10;33.60;99856;;;;593857;238;23048;-76
2022/05/26 08:56:28;;;;;;;2.92;1.25;;;34.70;49.80;34.00;99864;;;;595086;237;24089;-75
2022/05/26 08:58:57;;;;;;;1.75;1.45;;;34.60;49.70;33.10;99857;;;;595266;238;24114;-75
2022/05/26 09:01:28;;;;;;;2.33;1.40;;;34.50;48.10;31.40;99868;;;;579496;242;34922;-76
2022/05/26 09:03:52;;;;;;;1.65;1.15;;;33.10;49.40;29.70;99866;;;;594945;238;24065;-77
2022/05/26 09:06:20;;;;;;;2.40;1.27;;;29.90;53.90;28.30;99862;;;;605541;233;23160;-75
2022/05/26 09:14:32;;;;;;;2.40;1.47;;;26.80;59.30;24.30;99872;;;;586077;242;23054;-75
2022/05/26 09:17:11;;;;;;;1.40;1.30;;;25.50;63.20;23.10;99865;;;;605709;233;23048;-75
2022/05/26 09:19:45;;;;;;;2.27;1.77;;;24.10;67.80;22.30;99874;;;;606668;234;24037;-76
2022/05/26 09:22:47;;;;;;;1.70;1.60;;;23.10;71.40;22.10;99865;;;;596561;237;24023;-76
2022/05/26 09:25:11;;;;;;;1.43;1.33;;;22.60;74.10;22.90;99864;;;;592745;242;24052;-75
2022/05/26 09:27:40;;;;;;;1.40;1.30;;;23.10;75.00;23.90;99851;;;;596153;237;24073;-75
2022/05/26 09:30:23;;;;;;;2.77;1.37;;;24.10;72.70;24.00;99861;;;;596158;237;24139;-75
2022/05/26 09:32:54;;;;;;;1.37;1.20;;;24.40;70.00;24.90;99859;;;;606753;237;24043;-75
2022/05/26 09:35:31;;;;;;;2.90;1.07;;;25.20;68.90;26.70;99872;;;;595595;237;24075;-76
2022/05/26 09:38:00;;;;;;;1.90;1.30;;;26.80;64.40;28.60;99872;;;;597188;237;23105;-78
2022/05/26 09:40:40;;;;;;;1.77;1.57;;;28.70;60.40;30.40;99867;;;;594011;237;23076;-77
2022/05/26 09:43:18;;;;;;;1.77;1.40;;;30.80;56.60;30.60;99875;;;;596644;237;23031;-75
2022/05/26 09:45:55;;;;;;;2.42;1.05;;;31.60;52.40;30.80;99862;;;;596702;237;23042;-76
2022/05/26 09:48:26;;;;;;;3.62;0.90;;;31.70;52.00;31.40;99870;;;;596061;237;23048;-76
2022/05/26 09:51:02;;;;;;;1.70;1.25;;;32.30;50.50;31.60;99871;;;;596483;237;23056;-76
2022/05/26 09:53:38;;;;;;;2.15;1.15;;;32.70;49.70;32.00;99869;;;;589990;241;23061;-78
2022/05/26 09:56:09;;;;;;;2.37;0.95;;;33.10;48.00;31.90;99865;;;;596790;238;23059;-77
2022/05/26 09:58:34;;;;;;;4.45;1.17;;;33.00;47.90;31.90;99870;;;;596200;238;23100;-75
2022/05/26 10:01:02;;;;;;;4.30;1.25;;;32.90;49.10;32.70;99879;;;;596665;238;23034;-80
2022/05/26 10:03:44;;;;;;;1.42;1.10;;;33.70;47.50;32.00;99889;;;;596286;238;23088;-79
2022/05/26 10:06:30;;;;;;;1.23;0.88;;;33.30;47.10;30.20;99893;;;;606822;237;23061;-78
2022/05/26 10:09:16;;;;;;;2.60;1.02;;;31.90;48.40;28.10;99892;;;;607041;237;23098;-76
2022/05/26 10:12:17;;;;;;;1.50;0.90;;;29.80;50.70;26.30;99890;;;;596564;238;23058;-76
2022/05/26 10:15:19;;;;;;;2.40;1.03;;;27.90;53.60;24.70;99876;;;;596457;238;23062;-80
2022/05/26 10:18:20;;;;;;;0.87;0.80;;;26.20;55.90;23.00;99893;;;;606762;237;24064;-76
2022/05/26 10:21:00;;;;;;;1.47;0.80;;;24.30;58.30;21.90;99912;;;;583929;245;25420;-76
2022/05/26 10:24:14;;;;;;;0.83;0.80;;;22.90;59.00;21.10;99914;;;;592960;238;24103;-76
2022/05/26 10:26:47;;;;;;;2.53;1.10;;;22.00;68.70;19.90;99929;;;;593067;238;23076;-83
2022/05/26 10:29:54;;;;;;;1.80;1.13;;;20.80;80.30;19.30;99916;;;;581557;242;24049;-76
2022/05/26 10:32:26;;;;;;;0.93;0.83;;;20.00;87.90;19.20;99912;;;;597754;237;24094;-83
2022/05/26 10:35:08;;;;;;;1.20;1.00;;;19.70;93.30;19.40;99904;;;;585552;242;24025;-77
2022/05/26 10:37:54;;;;;;;4.07;1.53;;;19.90;94.10;19.90;99884;;;;597044;237;24102;-79
2022/05/26 10:40:33;;;;;;;1.67;1.27;;;20.30;94.70;20.80;99884;;;;607242;236;23060;-77
2022/05/26 10:43:07;;;;;;;1.93;1.40;;;21.10;96.70;21.30;99891;;;;607185;237;24017;-78
2022/05/26 10:45:44;;;;;;;4.27;1.43;;;21.60;94.60;21.60;99891;;;;596585;237;24032;-77
2022/05/26 10:48:29;;;;;;;4.83;1.50;;;21.90;94.20;21.70;99894;;;;596271;237;24059;-76
2022/05/26 10:51:09;;;;;;;4.27;1.37;;;22.00;93.90;21.60;99893;;;;595624;237;24079;-76
2022/05/26 10:53:55;;;;;;;3.93;1.57;;;22.00;93.10;21.60;99893;;;;581639;242;23071;-75
2022/05/26 10:56:53;;;;;;;1.23;1.20;;;22.00;92.90;21.60;99897;;;;595779;237;24095;-76
2022/05/26 10:59:29;;;;;;;4.47;1.60;;;22.10;92.60;21.70;99900;;;;603979;235;23067;-75
2022/05/26 11:02:31;;;;;;;1.87;1.40;;;22.20;92.70;21.70;99891;;;;595732;237;24073;-74
2022/05/26 11:05:01;;;;;;;3.83;1.67;;;22.20;92.50;21.30;99889;;;;583234;237;24023;-78
2022/05/26 11:07:53;;;;;;;3.03;1.70;;;21.90;91.70;20.60;99892;;;;586076;242;24061;-78
2022/05/26 11:10:27;;;;;;;4.00;1.50;;;21.40;92.00;20.10;99895;;;;596561;238;24037;-75
2022/05/26 11:13:03;;;;;;;2.30;1.60;;;20.80;93.70;19.50;99899;;;;596233;238;24082;-76
2022/05/26 11:18:38;;;;;;;1.73;1.50;;;19.70;98.00;18.70;99914;;;;594339;238;24037;-74
2022/05/26 11:21:06;;;;;;;1.70;1.60;;;19.30;99.90;18.50;99906;;;;594086;238;24045;-76
2022/05/26 11:23:41;;;;;;;1.53;1.43;;;19.00;99.90;18.40;99908;;;;607341;237;23994;-77
2022/05/26 11:26:36;;;;;;;4.03;1.70;;;18.90;99.90;18.40;99897;;;;596125;238;24009;-77
2022/05/26 11:29:28;;;;;;;2.77;1.30;;;18.90;99.90;18.20;99893;;;;594754;238;24033;-75
2022/05/26 11:38:13;;;;;;;1.63;1.10;;;18.70;99.90;18.20;99897;;;;597181;237;25247;-76
2022/05/26 11:40:53;;;;;;;2.30;1.13;;;18.80;99.90;18.30;99886;;;;596589;238;24069;-76
2022/05/26 11:43:33;;;;;;;1.50;1.13;;;18.90;99.90;18.40;99898;;;;597445;237;23989;-78
2022/05/26 11:46:06;;;;;;;3.43;1.63;;;19.10;99.90;18.60;99893;;;;588084;242;24043;-75
2022/05/26 11:48:34;;;;;;;5.80;1.17;;;19.00;99.90;18.80;99893;;;;597143;237;23086;-75
2022/05/26 11:51:38;;;;;;;2.03;1.00;;;19.30;99.80;18.90;99894;;;;587993;241;24047;-79
2022/05/26 11:54:04;;;;;;;2.30;1.07;;;19.50;98.40;19.10;99883;;;;586639;245;24094;-79
2022/05/26 11:56:40;;;;;;;2.20;1.07;;;19.60;96.20;19.20;99894;;;;578223;246;23107;-75
2022/05/26 11:59:32;;;;;;;2.17;1.10;;;19.80;95.20;19.20;99891;;;;575027;246;24065;-75
2022/05/26 12:02:19;;;;;;;1.47;0.90;;;19.80;94.70;19.20;99886;;;;577699;246;24092;-79
2022/05/26 12:04:50;;;;;;;8.87;1.00;;;19.80;94.40;19.40;99885;;;;577905;246;24060;-81
2022/05/26 12:07:29;;;;;;;2.87;0.93;;;19.90;94.00;19.40;99872;;;;577940;246;24057;-75
2022/05/26 12:10:00;;;;;;;1.07;1.07;;;20.00;93.60;19.40;99891;;;;576963;246;24094;-77
2022/05/26 12:12:30;;;;;;;1.97;1.03;;;19.90;93.90;19.70;99885;;;;577867;246;24049;-81
2022/05/26 12:15:18;;;;;;;2.10;1.33;;;20.10;93.80;19.60;99889;;;;577862;246;24063;-78
2022/05/26 12:17:51;;;;;;;1.50;1.20;;;20.20;93.80;19.60;99886;;;;577317;246;24055;-76
2022/05/26 12:20:21;;;;;;;3.43;1.00;;;20.20;93.40;19.60;99894;;;;576893;246;24042;-79
2022/05/26 12:22:53;;;;;;;4.93;1.10;;;20.10;93.30;19.70;99923;;;;576988;246;24042;-78
2022/05/26 12:25:35;;;;;;;1.50;0.83;;;20.20;95.80;19.50;99921;;;;576401;246;24068;-79